createdAt,value
2016-03-15T00:00:36.795Z,2.7
2016-03-15T00:03:47.318Z,2.7
2016-03-15T00:06:55.878Z,2.7
2016-03-15T00:10:04.996Z,2.7
2016-03-15T00:13:14.848Z,2.7
2016-03-15T00:16:31.780Z,2.7
2016-03-15T00:19:38.726Z,2.7
2016-03-15T00:22:41.000Z,2.7
2016-03-15T00:25:50.039Z,2.6
2016-03-15T00:29:00.734Z,2.6
2016-03-15T00:32:12.914Z,2.6
2016-03-15T00:35:24.957Z,2.6
2016-03-15T00:38:36.856Z,2.6
2016-03-15T00:41:48.942Z,2.6
2016-03-15T00:44:58.716Z,2.6
2016-03-15T00:48:10.708Z,2.6
2016-03-15T00:51:19.967Z,2.6
2016-03-15T00:54:35.258Z,2.6
2016-03-15T00:57:37.537Z,2.5
2016-03-15T01:00:47.123Z,2.5
2016-03-15T01:03:59.131Z,2.5
2016-03-15T01:07:09.108Z,2.6
2016-03-15T01:10:21.335Z,2.5
2016-03-15T01:13:35.705Z,2.5
2016-03-15T01:16:37.900Z,2.5
2016-03-15T01:19:49.830Z,2.5
2016-03-15T01:23:01.385Z,2.5
2016-03-15T01:26:10.768Z,2.5
2016-03-15T01:29:20.776Z,2.5
2016-03-15T01:32:37.709Z,2.5
2016-03-15T01:35:39.781Z,2.5
2016-03-15T01:38:51.992Z,2.5
2016-03-15T01:42:02.640Z,2.5
2016-03-15T01:45:14.569Z,2.5
2016-03-15T01:48:24.219Z,2.6
2016-03-15T01:51:36.276Z,2.5
2016-03-15T01:54:47.690Z,2.5
2016-03-15T01:57:58.057Z,2.5
2016-03-15T02:01:07.801Z,2.5
2016-03-15T02:04:16.356Z,2.5
2016-03-15T02:07:33.350Z,2.5
2016-03-15T02:10:35.499Z,2.5
2016-03-15T02:13:47.522Z,2.5
2016-03-15T02:16:59.327Z,2.5
2016-03-15T02:20:11.070Z,2.4
2016-03-15T02:23:22.922Z,2.4
2016-03-15T02:26:40.088Z,2.4
2016-03-15T02:29:42.206Z,2.5
2016-03-15T02:32:54.354Z,2.5
2016-03-15T02:36:04.676Z,2.4
2016-03-15T02:39:16.653Z,2.4
2016-03-15T02:42:31.944Z,2.5
2016-03-15T02:45:39.047Z,2.5
2016-03-15T02:48:41.102Z,2.5
2016-03-15T02:51:53.155Z,2.5
2016-03-15T02:55:03.118Z,2.5
2016-03-15T02:58:10.891Z,2.5
2016-03-15T03:01:24.759Z,2.5
2016-03-15T03:04:36.706Z,2.5
2016-03-15T03:07:48.698Z,2.5
2016-03-15T03:11:00.770Z,2.5
2016-03-15T03:14:12.919Z,2.6
2016-03-15T03:17:25.129Z,2.5
2016-03-15T03:20:36.875Z,2.6
2016-03-15T03:23:49.117Z,2.6
2016-03-15T03:26:58.485Z,2.6
2016-03-15T03:30:08.368Z,2.6
2016-03-15T03:33:20.203Z,2.6
2016-03-15T03:36:37.027Z,2.6
2016-03-15T03:39:39.270Z,2.6
2016-03-15T03:42:48.386Z,2.6
2016-03-15T03:46:00.192Z,2.6
2016-03-15T03:49:12.325Z,2.6
2016-03-15T03:52:24.521Z,2.6
2016-03-15T03:55:36.796Z,2.7
2016-03-15T03:58:48.851Z,2.7
2016-03-15T04:02:00.798Z,2.7
2016-03-15T04:05:12.993Z,2.7
2016-03-15T04:08:25.469Z,2.7
2016-03-15T04:11:37.418Z,2.7
2016-03-15T04:14:46.926Z,2.7
2016-03-15T04:17:59.091Z,2.7
2016-03-15T04:21:08.588Z,2.7
2016-03-15T04:24:20.783Z,2.7
2016-03-15T04:27:34.403Z,2.8
2016-03-15T04:30:36.629Z,2.8
2016-03-15T04:33:48.092Z,2.8
2016-03-15T04:37:00.118Z,2.8
2016-03-15T04:40:12.033Z,2.8
2016-03-15T04:43:22.791Z,2.8
2016-03-15T04:46:37.521Z,2.9
2016-03-15T04:49:37.373Z,2.9
2016-03-15T04:52:51.709Z,2.9
2016-03-15T04:56:03.639Z,2.9
2016-03-15T04:59:15.584Z,2.9
2016-03-15T05:02:32.454Z,2.9
2016-03-15T05:05:39.588Z,2.9
2016-03-15T05:08:41.846Z,2.9
2016-03-15T05:11:53.916Z,2.9
2016-03-15T05:15:03.237Z,3
2016-03-15T05:18:15.260Z,2.9
2016-03-15T05:21:24.378Z,2.9
2016-03-15T05:24:36.436Z,2.9
2016-03-15T05:27:46.131Z,2.9
2016-03-15T05:30:58.248Z,2.9
2016-03-15T05:34:10.428Z,2.9
2016-03-15T05:37:22.702Z,2.9
2016-03-15T05:40:39.885Z,2.9
2016-03-15T05:43:39.893Z,2.9
2016-03-15T05:46:54.338Z,2.9
2016-03-15T05:50:06.378Z,3
2016-03-15T05:53:16.979Z,3
2016-03-15T05:56:34.006Z,3
2016-03-15T05:59:36.389Z,3
2016-03-15T06:02:48.506Z,3
2016-03-15T06:06:00.577Z,3
2016-03-15T06:09:10.736Z,3.1
2016-03-15T06:12:20.546Z,3.1
2016-03-15T06:15:37.425Z,3.1
2016-03-15T06:18:39.737Z,3.2
2016-03-15T06:21:47.114Z,3.3
2016-03-15T06:25:01.463Z,3.4
2016-03-15T06:28:13.704Z,3.5
2016-03-15T06:31:30.790Z,3.5
2016-03-15T06:34:38.099Z,3.5
2016-03-15T06:37:40.559Z,3.7
2016-03-15T06:40:50.317Z,3.8
2016-03-15T06:44:02.748Z,3.9
2016-03-15T06:47:11.833Z,4.1
2016-03-15T06:50:24.091Z,4.2
2016-03-15T06:53:38.868Z,4.3
2016-03-15T06:56:41.767Z,4.3
2016-03-15T06:59:54.056Z,4.3
2016-03-15T07:03:04.127Z,4.4
2016-03-15T07:06:16.854Z,4.4
2016-03-15T07:09:36.056Z,4.5
2016-03-15T07:12:38.595Z,4.6
2016-03-15T07:15:47.963Z,4.7
2016-03-15T07:18:55.877Z,4.8
2016-03-15T07:22:10.541Z,4.9
2016-03-15T07:25:23.065Z,5.4
2016-03-15T07:28:38.622Z,6.1
2016-03-15T07:31:41.333Z,6.2
2016-03-15T07:34:51.373Z,6.5
2016-03-15T07:38:02.584Z,6.6
2016-03-15T07:41:14.998Z,6.6
2016-03-15T07:44:24.537Z,6.6
2016-03-15T07:47:37.143Z,6.5
2016-03-15T07:50:49.447Z,6.3
2016-03-15T07:53:59.456Z,6.1
2016-03-15T07:57:11.853Z,6
2016-03-15T08:00:24.299Z,5.9
2016-03-15T08:03:38.326Z,5.9
2016-03-15T08:06:41.068Z,5.7
2016-03-15T08:09:53.358Z,5.6
2016-03-15T08:13:05.585Z,5.6
2016-03-15T08:16:16.218Z,5.5
2016-03-15T08:19:25.585Z,5.4
2016-03-15T08:22:38.096Z,5.1
2016-03-15T08:25:50.353Z,4.9
2016-03-15T08:28:59.721Z,4.8
2016-03-15T08:32:09.213Z,4.7
2016-03-15T08:35:21.534Z,4.5
2016-03-15T08:38:38.858Z,4.5
2016-03-15T08:41:41.241Z,4.4
2016-03-15T08:44:50.108Z,4.4
2016-03-15T08:47:59.741Z,4.5
2016-03-15T08:51:12.171Z,4.5
2016-03-15T08:54:24.648Z,4.5
2016-03-15T08:57:36.877Z,4.5
2016-03-15T09:00:48.995Z,4.4
2016-03-15T09:03:58.566Z,4.3
2016-03-15T09:07:08.855Z,4.2
2016-03-15T09:10:20.987Z,4.2
2016-03-15T09:13:35.733Z,4.1
2016-03-15T09:16:37.976Z,4
2016-03-15T09:19:46.687Z,4.1
2016-03-15T09:22:56.070Z,4.1
2016-03-15T09:26:08.250Z,4.2
2016-03-15T09:29:20.508Z,4.2
2016-03-15T09:32:37.533Z,4.3
2016-03-15T09:35:40.229Z,4.4
2016-03-15T09:38:48.285Z,4.4
2016-03-15T09:42:00.105Z,4.3
2016-03-15T09:45:11.051Z,4.4
2016-03-15T09:48:21.074Z,4.4
2016-03-15T09:51:38.334Z,4.3
2016-03-15T09:54:40.750Z,4.1
2016-03-15T09:57:49.914Z,4
2016-03-15T10:00:59.906Z,4
2016-03-15T10:04:10.617Z,3.9
2016-03-15T10:07:21.110Z,3.9
2016-03-15T10:10:38.391Z,4
2016-03-15T10:13:40.805Z,3.9
2016-03-15T10:16:53.142Z,3.9
2016-03-15T10:20:05.478Z,3.9
2016-03-15T10:23:15.392Z,3.7
2016-03-15T10:26:25.603Z,3.7
2016-03-15T10:29:38.052Z,3.7
2016-03-15T10:32:47.294Z,3.7
2016-03-15T10:35:59.583Z,3.7
2016-03-15T10:39:10.185Z,3.7
2016-03-15T10:42:22.365Z,3.8
2016-03-15T10:45:36.954Z,4
2016-03-15T10:48:39.307Z,4.1
2016-03-15T10:51:51.392Z,4.1
2016-03-15T10:55:03.744Z,4.1
2016-03-15T10:58:12.970Z,4.2
2016-03-15T11:01:22.853Z,4.3
2016-03-15T11:04:37.350Z,4.4
2016-03-15T11:07:39.763Z,4.6
2016-03-15T11:10:50.443Z,4.8
2016-03-15T11:14:03.389Z,4.8
2016-03-15T11:17:15.881Z,4.7
2016-03-15T11:20:32.905Z,4.6
2016-03-15T11:23:40.337Z,4.5
2016-03-15T11:26:42.814Z,4.5
2016-03-15T11:29:52.963Z,4.4
2016-03-15T11:33:05.189Z,4.4
2016-03-15T11:36:17.385Z,4.3
2016-03-15T11:39:32.159Z,4.3
2016-03-15T11:42:39.482Z,4.3
2016-03-15T11:45:41.818Z,4.3
2016-03-15T11:48:54.248Z,4.2
2016-03-15T11:52:06.193Z,4.3
2016-03-15T11:55:17.264Z,4.2
2016-03-15T11:58:34.663Z,4.3
2016-03-15T12:01:36.968Z,4.3
2016-03-15T12:04:47.057Z,4.3
2016-03-15T12:07:59.268Z,4.2
2016-03-15T12:11:11.057Z,4.3
2016-03-15T12:14:23.081Z,4.5
2016-03-15T12:17:40.342Z,4.6
2016-03-15T12:20:42.709Z,4.6
2016-03-15T12:23:52.467Z,4.5
2016-03-15T12:27:04.569Z,4.4
2016-03-15T12:30:15.514Z,4.3
2016-03-15T12:33:24.789Z,4.2
2016-03-15T12:36:40.080Z,4.4
2016-03-15T12:39:42.479Z,4.5
2016-03-15T12:42:54.299Z,4.7
2016-03-15T12:46:04.573Z,4.8
2016-03-15T12:49:16.269Z,4.8
2016-03-15T12:52:25.980Z,4.7
2016-03-15T12:55:38.237Z,4.7
2016-03-15T12:58:50.515Z,4.9
2016-03-15T13:01:59.726Z,5.1
2016-03-15T13:05:11.937Z,5.3
2016-03-15T13:08:22.194Z,5.3
2016-03-15T13:11:36.640Z,5.3
2016-03-15T13:14:48.808Z,5.3
2016-03-15T13:18:00.925Z,5.4
2016-03-15T13:21:11.980Z,5.5
2016-03-15T13:24:24.379Z,5.5
2016-03-15T13:27:36.667Z,5.6
2016-03-15T13:30:49.335Z,5.5
2016-03-15T13:34:00.312Z,5.5
2016-03-15T13:37:12.508Z,5.6
2016-03-15T13:40:24.781Z,5.7
2016-03-15T13:43:37.071Z,5.8
2016-03-15T13:46:49.363Z,5.8
2016-03-15T13:50:01.668Z,5.8
2016-03-15T13:53:14.019Z,6
2016-03-15T13:56:24.574Z,6
2016-03-15T13:59:37.034Z,5.9
2016-03-15T14:02:49.328Z,6.1
2016-03-15T14:05:59.804Z,6.1
2016-03-15T14:09:10.187Z,6.1
2016-03-15T14:12:24.602Z,6
2016-03-15T14:15:40.172Z,5.7
2016-03-15T14:18:42.605Z,5.5
2016-03-15T14:21:53.332Z,5.5
2016-03-15T14:25:05.652Z,5.6
2016-03-15T14:28:14.676Z,5.7
2016-03-15T14:31:25.323Z,5.8
2016-03-15T14:34:37.521Z,5.8
2016-03-15T14:37:49.797Z,5.7
2016-03-15T14:40:58.352Z,5.6
2016-03-15T14:44:09.142Z,5.6
2016-03-15T14:47:21.525Z,5.5
2016-03-15T14:50:38.814Z,5.4
2016-03-15T14:53:41.119Z,5.2
2016-03-15T14:56:49.441Z,5.2
2016-03-15T15:00:01.810Z,5.2
2016-03-15T15:03:12.833Z,5.2
2016-03-15T15:06:25.170Z,5.1
2016-03-15T15:09:37.115Z,5.1
2016-03-15T15:12:47.025Z,5.1
2016-03-15T15:15:57.946Z,5.1
2016-03-15T15:19:07.707Z,5.1
2016-03-15T15:22:19.559Z,5
2016-03-15T15:25:34.405Z,5
2016-03-15T15:28:36.689Z,5.1
2016-03-15T15:31:48.072Z,5.1
2016-03-15T15:35:00.142Z,5
2016-03-15T15:38:11.025Z,5.1
2016-03-15T15:41:21.298Z,5.2
2016-03-15T15:44:35.760Z,5.3
2016-03-15T15:47:37.862Z,5.2
2016-03-15T15:50:49.950Z,5.2
2016-03-15T15:53:58.739Z,5.2
2016-03-15T15:57:09.514Z,5.1
2016-03-15T16:00:21.474Z,5
2016-03-15T16:03:38.435Z,4.9
2016-03-15T16:06:40.601Z,4.8
2016-03-15T16:09:52.522Z,4.7
2016-03-15T16:13:01.452Z,4.6
2016-03-15T16:16:13.242Z,4.7
2016-03-15T16:19:25.156Z,4.6
2016-03-15T16:22:37.132Z,4.6
2016-03-15T16:25:49.253Z,4.6
2016-03-15T16:29:01.277Z,4.5
2016-03-15T16:32:11.816Z,4.5
2016-03-15T16:35:22.027Z,4.4
2016-03-15T16:38:38.832Z,4.4
2016-03-15T16:41:41.137Z,4.4
2016-03-15T16:44:53.554Z,4.4
2016-03-15T16:48:05.547Z,4.3
2016-03-15T16:51:17.883Z,4.3
2016-03-15T16:54:34.656Z,4.2
2016-03-15T16:57:36.899Z,4.2
2016-03-15T17:00:48.784Z,4.2
2016-03-15T17:03:57.214Z,4.2
2016-03-15T17:07:09.393Z,4.1
2016-03-15T17:10:21.434Z,4.1
2016-03-15T17:13:35.317Z,4
2016-03-15T17:16:37.278Z,4.1
2016-03-15T17:19:48.070Z,4
2016-03-15T17:22:58.031Z,4
2016-03-15T17:26:08.180Z,3.9
2016-03-15T17:29:20.266Z,3.9
2016-03-15T17:32:37.211Z,3.8
2016-03-15T17:35:37.266Z,3.8
2016-03-15T17:38:51.293Z,3.8
2016-03-15T17:42:03.362Z,3.8
2016-03-15T17:45:12.575Z,3.8
2016-03-15T17:48:21.270Z,3.8
2016-03-15T17:51:37.622Z,3.8
2016-03-15T17:54:39.600Z,3.8
2016-03-15T17:57:51.563Z,3.7
2016-03-15T18:01:03.602Z,3.7
2016-03-15T18:04:15.532Z,3.7
2016-03-15T18:07:32.399Z,3.6
2016-03-15T18:10:39.517Z,3.6
2016-03-15T18:13:41.462Z,3.6
2016-03-15T18:16:53.379Z,3.6
2016-03-15T18:20:03.278Z,3.6
2016-03-15T18:23:15.317Z,3.5
2016-03-15T18:26:32.216Z,3.5
2016-03-15T18:29:39.224Z,3.4
2016-03-15T18:32:41.060Z,3.4
2016-03-15T18:35:52.696Z,3.5
2016-03-15T18:39:04.485Z,3.5
2016-03-15T18:42:16.431Z,3.4
2016-03-15T18:45:32.782Z,3.4
2016-03-15T18:48:39.869Z,3.4
2016-03-15T18:51:41.923Z,3.4
2016-03-15T18:54:51.872Z,3.4
2016-03-15T18:58:03.881Z,3.4
2016-03-15T19:01:15.497Z,3.4
2016-03-15T19:04:32.318Z,3.3
2016-03-15T19:07:39.467Z,3.4
2016-03-15T19:10:41.522Z,3.4
2016-03-15T19:13:53.751Z,3.4
2016-03-15T19:17:05.479Z,3.3
2016-03-15T19:20:17.596Z,3.2
2016-03-15T19:23:32.698Z,3.2
2016-03-15T19:26:39.642Z,3.2
2016-03-15T19:29:41.620Z,3.3
2016-03-15T19:32:53.428Z,3.2
2016-03-15T19:36:05.389Z,3.2
2016-03-15T19:39:17.241Z,3.2
2016-03-15T19:42:34.249Z,3.2
2016-03-15T19:45:36.303Z,3.2
2016-03-15T19:48:44.687Z,3.2
2016-03-15T19:51:52.244Z,3.2
2016-03-15T19:55:06.267Z,3.1
2016-03-15T19:58:17.916Z,3
2016-03-15T20:01:34.581Z,3
2016-03-15T20:04:36.402Z,2.9
2016-03-15T20:07:46.694Z,2.8
2016-03-15T20:10:55.310Z,2.8
2016-03-15T20:14:06.976Z,2.8
2016-03-15T20:17:18.640Z,2.8
2016-03-15T20:20:35.492Z,2.8
2016-03-15T20:23:37.436Z,2.8
2016-03-15T20:26:47.444Z,2.7
2016-03-15T20:29:59.190Z,2.7
2016-03-15T20:33:09.183Z,2.7
2016-03-15T20:36:20.956Z,2.7
2016-03-15T20:39:36.136Z,2.7
2016-03-15T20:42:37.644Z,2.7
2016-03-15T20:45:47.371Z,2.7
2016-03-15T20:48:59.085Z,2.7
2016-03-15T20:52:10.890Z,2.7
2016-03-15T20:55:19.882Z,2.6
2016-03-15T20:58:36.469Z,2.6
2016-03-15T21:01:38.258Z,2.6
2016-03-15T21:04:47.281Z,2.6
2016-03-15T21:08:02.548Z,2.6
2016-03-15T21:11:10.009Z,2.6
2016-03-15T21:14:18.971Z,2.7
2016-03-15T21:17:32.994Z,2.6
2016-03-15T21:20:39.706Z,2.6
2016-03-15T21:23:41.510Z,2.6
2016-03-15T21:26:53.177Z,2.6
2016-03-15T21:30:04.107Z,2.6
2016-03-15T21:33:15.943Z,2.6
2016-03-15T21:36:32.155Z,2.6
2016-03-15T21:39:38.741Z,2.6
2016-03-15T21:42:40.358Z,2.5
2016-03-15T21:45:52.069Z,2.5
2016-03-15T21:49:01.753Z,2.5
2016-03-15T21:52:13.369Z,2.5
2016-03-15T21:55:22.113Z,2.5
2016-03-15T21:58:35.855Z,2.6
2016-03-15T22:01:37.598Z,2.6
2016-03-15T22:04:45.824Z,2.6
2016-03-15T22:07:55.882Z,2.6
2016-03-15T22:11:05.047Z,2.6
2016-03-15T22:14:13.289Z,2.6
2016-03-15T22:17:25.031Z,2.6
2016-03-15T22:20:38.243Z,2.6
2016-03-15T22:23:40.110Z,2.7
2016-03-15T22:26:51.478Z,2.6
2016-03-15T22:30:02.848Z,2.6
2016-03-15T22:33:14.372Z,2.6
2016-03-15T22:36:25.583Z,2.6
2016-03-15T22:39:39.216Z,2.6
2016-03-15T22:42:44.880Z,2.5
2016-03-15T22:45:47.279Z,2.5
2016-03-15T22:49:00.850Z,2.4
2016-03-15T22:52:12.564Z,2.5
2016-03-15T22:55:20.384Z,2.5
2016-03-15T22:58:37.064Z,2.5
2016-03-15T23:01:38.697Z,2.6
2016-03-15T23:04:50.346Z,2.6
2016-03-15T23:07:59.558Z,2.6
2016-03-15T23:11:11.349Z,2.6
2016-03-15T23:14:21.607Z,2.6
2016-03-15T23:17:36.022Z,2.6
2016-03-15T23:20:37.748Z,2.5
2016-03-15T23:23:45.834Z,2.5
2016-03-15T23:26:55.453Z,2.4
2016-03-15T23:30:03.882Z,2.5
2016-03-15T23:33:12.643Z,2.5
2016-03-15T23:36:24.229Z,2.5
2016-03-15T23:39:39.191Z,2.5
2016-03-15T23:42:40.902Z,2.5
2016-03-15T23:45:51.924Z,2.5
2016-03-15T23:49:01.043Z,2.5
2016-03-15T23:52:10.082Z,2.5
2016-03-15T23:55:20.156Z,2.5
2016-03-15T23:58:36.772Z,2.5
